N4390S KLGB-KCMA
Flight info
| Callsign | N4390S |
|---|---|
| Flight time | N/A |
| Altitude | 4500 |
| Route | DCT |
| Aircraft | P28A/L-S/C |
Departure
| Time | 2026-05-05 14:13 |
|---|---|
| Airport | Long Beach International Airport (KLGB) |
Arrival
| Time | N/A |
|---|---|
| Airport | Camarillo International Airport (KCMA) |
| Time | Latitude | Longitude | Altitude | Speed | Heading |
|---|---|---|---|---|---|
| 2026-05-05 14:06 | 33.81300 | -118.16295 | 51 ft | 0 kts | 21° |
| 2026-05-05 14:07 | 33.81302 | -118.16294 | 51 ft | 2 kts | 20° |
| 2026-05-05 14:08 | 33.81313 | -118.16222 | 52 ft | 15 kts | 89° |
| 2026-05-05 14:08 | 33.81314 | -118.16146 | 52 ft | 0 kts | 91° |
| 2026-05-05 14:09 | 33.81307 | -118.16072 | 51 ft | 18 kts | 92° |
| 2026-05-05 14:09 | 33.81307 | -118.15875 | 49 ft | 23 kts | 91° |
| 2026-05-05 14:10 | 33.81307 | -118.15702 | 47 ft | 17 kts | 90° |
| 2026-05-05 14:10 | 33.81308 | -118.15548 | 45 ft | 20 kts | 89° |
| 2026-05-05 14:10 | 33.81308 | -118.15366 | 43 ft | 23 kts | 89° |
| 2026-05-05 14:10 | 33.81308 | -118.15160 | 40 ft | 25 kts | 89° |
| 2026-05-05 14:11 | 33.81308 | -118.14954 | 38 ft | 21 kts | 89° |
| 2026-05-05 14:11 | 33.81337 | -118.14860 | 37 ft | 6 kts | 5° |
| 2026-05-05 14:11 | 33.81340 | -118.14860 | 37 ft | 0 kts | 358° |
| 2026-05-05 14:11 | 33.81351 | -118.14861 | 37 ft | 3 kts | 359° |
| 2026-05-05 14:12 | 33.81387 | -118.14870 | 37 ft | 6 kts | 304° |
| 2026-05-05 14:12 | 33.81389 | -118.15073 | 40 ft | 52 kts | 272° |
| 2026-05-05 14:12 | 33.81387 | -118.15615 | 183 ft | 71 kts | 266° |
| 2026-05-05 14:12 | 33.81369 | -118.16219 | 420 ft | 74 kts | 263° |
| 2026-05-05 14:13 | 33.81362 | -118.16808 | 687 ft | 71 kts | 261° |
| 2026-05-05 14:13 | 33.81330 | -118.17437 | 889 ft | 77 kts | 262° |
| 2026-05-05 14:13 | 33.81083 | -118.17987 | 1128 ft | 78 kts | 212° |
| 2026-05-05 14:13 | 33.80576 | -118.18157 | 1355 ft | 80 kts | 186° |
| 2026-05-05 14:14 | 33.80021 | -118.18216 | 1601 ft | 79 kts | 183° |
| 2026-05-05 14:14 | 33.79449 | -118.18256 | 1816 ft | 82 kts | 183° |
| 2026-05-05 14:14 | 33.78884 | -118.18292 | 2046 ft | 82 kts | 183° |
| 2026-05-05 14:14 | 33.78344 | -118.18500 | 2239 ft | 84 kts | 220° |
| 2026-05-05 14:15 | 33.78065 | -118.19062 | 2503 ft | 77 kts | 251° |
| 2026-05-05 14:15 | 33.77952 | -118.19695 | 2696 ft | 80 kts | 267° |
| 2026-05-05 14:15 | 33.77954 | -118.20351 | 2958 ft | 75 kts | 268° |
| 2026-05-05 14:15 | 33.77967 | -118.21013 | 3128 ft | 81 kts | 275° |
| 2026-05-05 14:16 | 33.78062 | -118.21671 | 3350 ft | 80 kts | 279° |
| 2026-05-05 14:16 | 33.78175 | -118.22335 | 3563 ft | 80 kts | 281° |
| 2026-05-05 14:16 | 33.78321 | -118.22966 | 3751 ft | 82 kts | 290° |
| 2026-05-05 14:16 | 33.78510 | -118.23605 | 3983 ft | 79 kts | 288° |
| 2026-05-05 14:17 | 33.78730 | -118.24236 | 4133 ft | 85 kts | 292° |
| 2026-05-05 14:17 | 33.78957 | -118.24861 | 4388 ft | 79 kts | 291° |
| 2026-05-05 14:17 | 33.79191 | -118.25500 | 4500 ft | 89 kts | 292° |
| 2026-05-05 14:17 | 33.79456 | -118.26225 | 4560 ft | 101 kts | 294° |
| 2026-05-05 14:18 | 33.79755 | -118.27044 | 4533 ft | 111 kts | 294° |
| 2026-05-05 14:18 | 33.80092 | -118.27932 | 4514 ft | 115 kts | 296° |
| 2026-05-05 14:18 | 33.80603 | -118.28661 | 4558 ft | 114 kts | 314° |
| 2026-05-05 14:18 | 33.81181 | -118.29350 | 4517 ft | 120 kts | 315° |
| 2026-05-05 14:19 | 33.81770 | -118.30045 | 4546 ft | 117 kts | 315° |
| 2026-05-05 14:19 | 33.82361 | -118.30737 | 4530 ft | 118 kts | 316° |
| 2026-05-05 14:19 | 33.82993 | -118.31369 | 4515 ft | 117 kts | 319° |
| 2026-05-05 14:19 | 33.83621 | -118.31985 | 4509 ft | 117 kts | 321° |
| 2026-05-05 14:20 | 33.84285 | -118.32574 | 4485 ft | 118 kts | 322° |
| 2026-05-05 14:20 | 33.84936 | -118.33151 | 4487 ft | 116 kts | 322° |
| 2026-05-05 14:20 | 33.85592 | -118.33732 | 4462 ft | 118 kts | 323° |
| 2026-05-05 14:20 | 33.86257 | -118.34320 | 4462 ft | 116 kts | 322° |
| 2026-05-05 14:21 | 33.86908 | -118.34899 | 4465 ft | 116 kts | 322° |
| 2026-05-05 14:21 | 33.87563 | -118.35479 | 4459 ft | 116 kts | 322° |
| 2026-05-05 14:21 | 33.88219 | -118.36056 | 4430 ft | 119 kts | 322° |
| 2026-05-05 14:21 | 33.88882 | -118.36636 | 4470 ft | 115 kts | 322° |
| 2026-05-05 14:22 | 33.89545 | -118.37206 | 4449 ft | 118 kts | 322° |
| 2026-05-05 14:22 | 33.90219 | -118.37783 | 4463 ft | 117 kts | 322° |
| 2026-05-05 14:22 | 33.90876 | -118.38354 | 4478 ft | 116 kts | 322° |
| 2026-05-05 14:22 | 33.91518 | -118.38921 | 4551 ft | 112 kts | 322° |
| 2026-05-05 14:23 | 33.92175 | -118.39479 | 4539 ft | 115 kts | 324° |
| 2026-05-05 14:23 | 33.92867 | -118.39977 | 4523 ft | 117 kts | 329° |
| 2026-05-05 14:23 | 33.93592 | -118.40471 | 4489 ft | 119 kts | 329° |
| 2026-05-05 14:23 | 33.94319 | -118.40963 | 4464 ft | 119 kts | 329° |
| 2026-05-05 14:24 | 33.95062 | -118.41436 | 4448 ft | 119 kts | 332° |
| 2026-05-05 14:24 | 33.95799 | -118.41894 | 4419 ft | 120 kts | 331° |
| 2026-05-05 14:24 | 33.96529 | -118.42350 | 4451 ft | 117 kts | 331° |
| 2026-05-05 14:24 | 33.97274 | -118.42816 | 4432 ft | 117 kts | 331° |
| 2026-05-05 14:25 | 33.97991 | -118.43269 | 4462 ft | 115 kts | 331° |
| 2026-05-05 14:25 | 33.98704 | -118.43722 | 4475 ft | 116 kts | 331° |
| 2026-05-05 14:25 | 33.99427 | -118.44190 | 4476 ft | 116 kts | 328° |
| 2026-05-05 14:25 | 34.00105 | -118.44729 | 4494 ft | 115 kts | 324° |
| 2026-05-05 14:26 | 34.00768 | -118.45288 | 4503 ft | 116 kts | 324° |
| 2026-05-05 14:26 | 34.01292 | -118.46031 | 4474 ft | 117 kts | 303° |
| 2026-05-05 14:26 | 34.01731 | -118.46834 | 4525 ft | 114 kts | 303° |
| 2026-05-05 14:26 | 34.02172 | -118.47661 | 4508 ft | 116 kts | 303° |
| 2026-05-05 14:27 | 34.02600 | -118.48467 | 4544 ft | 114 kts | 303° |
| 2026-05-05 14:27 | 34.03037 | -118.49290 | 4528 ft | 117 kts | 303° |
| 2026-05-05 14:27 | 34.03471 | -118.50109 | 4562 ft | 114 kts | 303° |
| 2026-05-05 14:27 | 34.03902 | -118.50926 | 4514 ft | 119 kts | 303° |
| 2026-05-05 14:28 | 34.04358 | -118.51783 | 4462 ft | 121 kts | 303° |
| 2026-05-05 14:28 | 34.04805 | -118.52634 | 4440 ft | 120 kts | 303° |